sensor_id;sensor_type;location;lat;lon;timestamp;pressure;altitude;pressure_sealevel;temperature;humidity
10060;BME280;5069;49.306;8.636;2022-09-29T00:02:43;99000.72;;;10.32;100.00
10060;BME280;5069;49.306;8.636;2022-09-29T00:05:52;99000.56;;;10.35;100.00
10060;BME280;5069;49.306;8.636;2022-09-29T00:08:53;99004.13;;;10.34;100.00
10060;BME280;5069;49.306;8.636;2022-09-29T00:11:55;98997.00;;;10.37;100.00
10060;BME280;5069;49.306;8.636;2022-09-29T00:14:57;98997.16;;;10.33;100.00
10060;BME280;5069;49.306;8.636;2022-09-29T00:17:58;98996.50;;;10.30;100.00
10060;BME280;5069;49.306;8.636;2022-09-29T00:21:17;98998.03;;;10.34;100.00
10060;BME280;5069;49.306;8.636;2022-09-29T00:24:21;98995.13;;;10.39;100.00
10060;BME280;5069;49.306;8.636;2022-09-29T00:27:22;98989.19;;;10.35;100.00
10060;BME280;5069;49.306;8.636;2022-09-29T00:30:24;98990.63;;;10.25;100.00
10060;BME280;5069;49.306;8.636;2022-09-29T00:33:30;98986.28;;;10.24;100.00
10060;BME280;5069;49.306;8.636;2022-09-29T00:36:31;98994.28;;;10.22;100.00
10060;BME280;5069;49.306;8.636;2022-09-29T00:39:32;98986.28;;;10.24;100.00
10060;BME280;5069;49.306;8.636;2022-09-29T00:42:34;98985.44;;;10.23;100.00
10060;BME280;5069;49.306;8.636;2022-09-29T00:45:35;98982.81;;;10.23;100.00
10060;BME280;5069;49.306;8.636;2022-09-29T00:48:37;98984.41;;;10.26;100.00
10060;BME280;5069;49.306;8.636;2022-09-29T00:51:42;98979.47;;;10.20;100.00
10060;BME280;5069;49.306;8.636;2022-09-29T00:54:49;98978.81;;;10.16;100.00
10060;BME280;5069;49.306;8.636;2022-09-29T00:58:27;98974.22;;;10.20;100.00
10060;BME280;5069;49.306;8.636;2022-09-29T01:01:31;98975.06;;;10.20;100.00
10060;BME280;5069;49.306;8.636;2022-09-29T01:04:32;98977.88;;;10.17;100.00
10060;BME280;5069;49.306;8.636;2022-09-29T01:07:34;98971.13;;;10.12;100.00
10060;BME280;5069;49.306;8.636;2022-09-29T01:10:37;98974.94;;;10.06;100.00
10060;BME280;5069;49.306;8.636;2022-09-29T01:13:40;98971.72;;;10.01;100.00
10060;BME280;5069;49.306;8.636;2022-09-29T01:16:41;98980.19;;;10.06;100.00
10060;BME280;5069;49.306;8.636;2022-09-29T01:19:50;98981.91;;;10.07;100.00
10060;BME280;5069;49.306;8.636;2022-09-29T01:33:37;98981.78;;;9.93;100.00
10060;BME280;5069;49.306;8.636;2022-09-29T01:43:22;98986.22;;;10.08;100.00
10060;BME280;5069;49.306;8.636;2022-09-29T01:46:33;98975.53;;;10.11;100.00
10060;BME280;5069;49.306;8.636;2022-09-29T01:49:42;98986.84;;;10.13;100.00
10060;BME280;5069;49.306;8.636;2022-09-29T01:52:50;98981.47;;;10.15;100.00
10060;BME280;5069;49.306;8.636;2022-09-29T01:55:57;98978.94;;;10.13;100.00
10060;BME280;5069;49.306;8.636;2022-09-29T01:59:07;98975.78;;;10.07;100.00
10060;BME280;5069;49.306;8.636;2022-09-29T02:02:24;98980.19;;;10.06;100.00
10060;BME280;5069;49.306;8.636;2022-09-29T02:05:28;98979.69;;;10.00;100.00
10060;BME280;5069;49.306;8.636;2022-09-29T02:12:03;98976.03;;;10.02;100.00
10060;BME280;5069;49.306;8.636;2022-09-29T02:15:10;98976.88;;;10.03;100.00
10060;BME280;5069;49.306;8.636;2022-09-29T02:18:17;98976.38;;;9.96;100.00
10060;BME280;5069;49.306;8.636;2022-09-29T02:21:22;98989.53;;;9.96;100.00
10060;BME280;5069;49.306;8.636;2022-09-29T02:24:24;98981.38;;;9.85;100.00
10060;BME280;5069;49.306;8.636;2022-09-29T02:27:26;98992.81;;;9.84;100.00
10060;BME280;5069;49.306;8.636;2022-09-29T02:30:34;98982.28;;;9.84;100.00
10060;BME280;5069;49.306;8.636;2022-09-29T02:33:35;98984.13;;;9.82;100.00
10060;BME280;5069;49.306;8.636;2022-09-29T02:36:50;98989.72;;;9.76;100.00
10060;BME280;5069;49.306;8.636;2022-09-29T02:50:33;98992.91;;;9.65;100.00
10060;BME280;5069;49.306;8.636;2022-09-29T02:53:55;98997.50;;;9.62;100.00
10060;BME280;5069;49.306;8.636;2022-09-29T02:57:03;98995.63;;;9.64;100.00
10060;BME280;5069;49.306;8.636;2022-09-29T03:00:13;98992.31;;;9.60;100.00
10060;BME280;5069;49.306;8.636;2022-09-29T03:03:15;98994.09;;;9.60;100.00
10060;BME280;5069;49.306;8.636;2022-09-29T03:06:18;98990.53;;;9.61;100.00
10060;BME280;5069;49.306;8.636;2022-09-29T03:09:21;98993.41;;;9.56;100.00
10060;BME280;5069;49.306;8.636;2022-09-29T03:12:22;98985.09;;;9.64;100.00
10060;BME280;5069;49.306;8.636;2022-09-29T03:15:24;98986.81;;;9.65;100.00
10060;BME280;5069;49.306;8.636;2022-09-29T03:18:25;98984.25;;;9.63;100.00
10060;BME280;5069;49.306;8.636;2022-09-29T03:21:27;98987.91;;;9.61;100.00
10060;BME280;5069;49.306;8.636;2022-09-29T03:24:29;98990.59;;;9.59;100.00
10060;BME280;5069;49.306;8.636;2022-09-29T03:27:32;98995.94;;;9.58;100.00
10060;BME280;5069;49.306;8.636;2022-09-29T03:30:34;98990.66;;;9.58;100.00
10060;BME280;5069;49.306;8.636;2022-09-29T03:33:36;98986.97;;;9.62;100.00
10060;BME280;5069;49.306;8.636;2022-09-29T03:36:38;98981.53;;;9.65;100.00
10060;BME280;5069;49.306;8.636;2022-09-29T03:39:41;98984.78;;;9.70;100.00
10060;BME280;5069;49.306;8.636;2022-09-29T03:42:45;98985.47;;;9.73;100.00
10060;BME280;5069;49.306;8.636;2022-09-29T03:45:51;98979.38;;;9.73;100.00
10060;BME280;5069;49.306;8.636;2022-09-29T03:48:53;98975.09;;;9.70;100.00
10060;BME280;5069;49.306;8.636;2022-09-29T03:51:55;98977.81;;;9.69;100.00
10060;BME280;5069;49.306;8.636;2022-09-29T03:54:56;98983.78;;;9.72;100.00
10060;BME280;5069;49.306;8.636;2022-09-29T03:57:58;98983.06;;;9.69;100.00
10060;BME280;5069;49.306;8.636;2022-09-29T04:00:59;98979.84;;;9.64;100.00
10060;BME280;5069;49.306;8.636;2022-09-29T04:04:02;98985.94;;;9.64;100.00
10060;BME280;5069;49.306;8.636;2022-09-29T04:07:03;98986.88;;;9.63;100.00
10060;BME280;5069;49.306;8.636;2022-09-29T04:10:05;98986.19;;;9.60;100.00
10060;BME280;5069;49.306;8.636;2022-09-29T04:13:07;98978.47;;;9.57;100.00
10060;BME280;5069;49.306;8.636;2022-09-29T04:16:08;98983.75;;;9.57;100.00
10060;BME280;5069;49.306;8.636;2022-09-29T04:19:10;98994.09;;;9.60;100.00
10060;BME280;5069;49.306;8.636;2022-09-29T04:22:14;98992.38;;;9.59;100.00
10060;BME280;5069;49.306;8.636;2022-09-29T04:25:18;98986.19;;;9.60;100.00
10060;BME280;5069;49.306;8.636;2022-09-29T04:28:20;98983.88;;;9.53;100.00
10060;BME280;5069;49.306;8.636;2022-09-29T04:31:21;98988.47;;;9.50;100.00
10060;BME280;5069;49.306;8.636;2022-09-29T04:34:23;98988.66;;;9.45;100.00
10060;BME280;5069;49.306;8.636;2022-09-29T04:37:24;98991.78;;;9.36;100.00
10060;BME280;5069;49.306;8.636;2022-09-29T04:40:25;98989.16;;;9.36;100.00
10060;BME280;5069;49.306;8.636;2022-09-29T04:43:27;98994.78;;;9.29;100.00
10060;BME280;5069;49.306;8.636;2022-09-29T04:46:28;98992.41;;;9.24;100.00
10060;BME280;5069;49.306;8.636;2022-09-29T04:49:30;98992.41;;;9.24;100.00
10060;BME280;5069;49.306;8.636;2022-09-29T04:52:31;98997.53;;;9.27;100.00
10060;BME280;5069;49.306;8.636;2022-09-29T04:55:33;98999.28;;;9.27;100.00
10060;BME280;5069;49.306;8.636;2022-09-29T04:58:34;98996.66;;;9.27;100.00
10060;BME280;5069;49.306;8.636;2022-09-29T05:01:36;98999.38;;;9.25;100.00
10060;BME280;5069;49.306;8.636;2022-09-29T05:04:37;99003.78;;;9.25;100.00
10060;BME280;5069;49.306;8.636;2022-09-29T05:07:39;99000.03;;;9.29;100.00
10060;BME280;5069;49.306;8.636;2022-09-29T05:10:41;98997.34;;;9.30;100.00
10060;BME280;5069;49.306;8.636;2022-09-29T05:13:43;98999.06;;;9.31;100.00
10060;BME280;5069;49.306;8.636;2022-09-29T05:16:44;99004.31;;;9.31;100.00
10060;BME280;5069;49.306;8.636;2022-09-29T05:19:46;99007.56;;;9.36;100.00
10060;BME280;5069;49.306;8.636;2022-09-29T05:22:47;99002.38;;;9.35;100.00
10060;BME280;5069;49.306;8.636;2022-09-29T05:25:48;99010.25;;;9.35;100.00
10060;BME280;5069;49.306;8.636;2022-09-29T05:28:50;99013.13;;;9.30;100.00
10060;BME280;5069;49.306;8.636;2022-09-29T05:31:51;99011.28;;;9.32;100.00
10060;BME280;5069;49.306;8.636;2022-09-29T05:34:53;99020.72;;;9.36;100.00
10060;BME280;5069;49.306;8.636;2022-09-29T05:37:54;99017.09;;;9.39;100.00
10060;BME280;5069;49.306;8.636;2022-09-29T05:40:56;99027.50;;;9.40;100.00
10060;BME280;5069;49.306;8.636;2022-09-29T05:43:57;99023.94;;;9.41;100.00
10060;BME280;5069;49.306;8.636;2022-09-29T05:47:01;99023.03;;;9.42;100.00
10060;BME280;5069;49.306;8.636;2022-09-29T05:50:02;99030.84;;;9.44;100.00
10060;BME280;5069;49.306;8.636;2022-09-29T05:53:04;99034.94;;;9.49;100.00
10060;BME280;5069;49.306;8.636;2022-09-29T05:56:14;99037.34;;;9.54;100.00
10060;BME280;5069;49.306;8.636;2022-09-29T05:59:16;99037.34;;;9.54;100.00
10060;BME280;5069;49.306;8.636;2022-09-29T06:02:17;99042.97;;;9.46;100.00
10060;BME280;5069;49.306;8.636;2022-09-29T06:05:19;99047.78;;;9.56;100.00
10060;BME280;5069;49.306;8.636;2022-09-29T06:08:20;99051.78;;;9.63;100.00
10060;BME280;5069;49.306;8.636;2022-09-29T06:11:23;99057.75;;;9.66;100.00
10060;BME280;5069;49.306;8.636;2022-09-29T06:14:25;99048.09;;;9.67;100.00
10060;BME280;5069;49.306;8.636;2022-09-29T06:17:27;99049.50;;;9.74;100.00
10060;BME280;5069;49.306;8.636;2022-09-29T06:20:28;99048.22;;;9.81;100.00
10060;BME280;5069;49.306;8.636;2022-09-29T06:23:30;99038.47;;;9.83;100.00
10060;BME280;5069;49.306;8.636;2022-09-29T06:26:32;99048.69;;;9.89;100.00
10060;BME280;5069;49.306;8.636;2022-09-29T06:29:34;99050.16;;;9.94;100.00
10060;BME280;5069;49.306;8.636;2022-09-29T06:32:35;99041.53;;;9.91;100.00
10060;BME280;5069;49.306;8.636;2022-09-29T06:35:37;99044.03;;;9.94;100.00
10060;BME280;5069;49.306;8.636;2022-09-29T06:38:57;99049.91;;;9.99;100.00
10060;BME280;5069;49.306;8.636;2022-09-29T06:41:59;99040.69;;;10.08;100.00
10060;BME280;5069;49.306;8.636;2022-09-29T06:45:01;99042.13;;;10.13;100.00
10060;BME280;5069;49.306;8.636;2022-09-29T06:48:02;99042.84;;;10.17;100.00
10060;BME280;5069;49.306;8.636;2022-09-29T06:51:07;99044.38;;;10.21;100.00
10060;BME280;5069;49.306;8.636;2022-09-29T06:54:12;99048.66;;;10.23;100.00
10060;BME280;5069;49.306;8.636;2022-09-29T06:57:14;99048.00;;;10.35;100.00
10060;BME280;5069;49.306;8.636;2022-09-29T07:00:16;99044.16;;;10.41;100.00
10060;BME280;5069;49.306;8.636;2022-09-29T07:03:18;99040.88;;;10.53;100.00
10060;BME280;5069;49.306;8.636;2022-09-29T07:06:19;99046.03;;;10.55;100.00
10060;BME280;5069;49.306;8.636;2022-09-29T07:09:21;99043.31;;;10.56;100.00
10060;BME280;5069;49.306;8.636;2022-09-29T07:12:23;99040.34;;;10.62;100.00
10060;BME280;5069;49.306;8.636;2022-09-29T07:15:25;99049.69;;;10.68;100.00
10060;BME280;5069;49.306;8.636;2022-09-29T07:18:35;99056.34;;;10.75;100.00
10060;BME280;5069;49.306;8.636;2022-09-29T07:21:38;99054.81;;;10.87;100.00
10060;BME280;5069;49.306;8.636;2022-09-29T07:24:39;99058.53;;;10.98;100.00
10060;BME280;5069;49.306;8.636;2022-09-29T07:27:40;99055.47;;;11.06;100.00
10060;BME280;5069;49.306;8.636;2022-09-29T07:30:42;99062.34;;;11.08;100.00
10060;BME280;5069;49.306;8.636;2022-09-29T07:33:44;99063.28;;;11.07;100.00
10060;BME280;5069;49.306;8.636;2022-09-29T07:36:46;99063.13;;;11.10;100.00
10060;BME280;5069;49.306;8.636;2022-09-29T07:39:48;99060.03;;;11.18;100.00
10060;BME280;5069;49.306;8.636;2022-09-29T07:42:49;99063.25;;;11.23;100.00
10060;BME280;5069;49.306;8.636;2022-09-29T07:45:51;99061.41;;;11.25;100.00
10060;BME280;5069;49.306;8.636;2022-09-29T07:48:52;99074.31;;;11.30;100.00
10060;BME280;5069;49.306;8.636;2022-09-29T07:51:54;99075.66;;;11.37;100.00
10060;BME280;5069;49.306;8.636;2022-09-29T07:54:56;99077.59;;;11.49;100.00
10060;BME280;5069;49.306;8.636;2022-09-29T07:57:57;99076.47;;;11.53;100.00
10060;BME280;5069;49.306;8.636;2022-09-29T08:00:59;99082.53;;;11.55;100.00
10060;BME280;5069;49.306;8.636;2022-09-29T08:04:02;99084.03;;;11.59;100.00
10060;BME280;5069;49.306;8.636;2022-09-29T08:07:03;99082.38;;;11.72;100.00
10060;BME280;5069;49.306;8.636;2022-09-29T08:10:05;99084.13;;;11.73;100.00
10060;BME280;5069;49.306;8.636;2022-09-29T08:13:17;99081.38;;;11.75;100.00
10060;BME280;5069;49.306;8.636;2022-09-29T08:16:19;99087.16;;;11.81;100.00
10060;BME280;5069;49.306;8.636;2022-09-29T08:19:21;99089.00;;;11.79;100.00
10060;BME280;5069;49.306;8.636;2022-09-29T08:22:22;99087.91;;;11.83;100.00
10060;BME280;5069;49.306;8.636;2022-09-29T08:25:24;99096.13;;;11.93;100.00
10060;BME280;5069;49.306;8.636;2022-09-29T08:28:26;99099.44;;;11.96;100.00
10060;BME280;5069;49.306;8.636;2022-09-29T08:31:32;99092.09;;;12.02;100.00
10060;BME280;5069;49.306;8.636;2022-09-29T08:34:34;99093.53;;;12.21;100.00
10060;BME280;5069;49.306;8.636;2022-09-29T08:37:36;99097.97;;;12.63;100.00
10060;BME280;5069;49.306;8.636;2022-09-29T08:40:39;99108.69;;;12.89;99.88
10060;BME280;5069;49.306;8.636;2022-09-29T08:43:41;99098.44;;;13.11;98.32
10060;BME280;5069;49.306;8.636;2022-09-29T08:46:51;99103.06;;;13.21;95.67
10060;BME280;5069;49.306;8.636;2022-09-29T08:50:13;99111.84;;;13.22;93.43
10060;BME280;5069;49.306;8.636;2022-09-29T08:53:19;99115.94;;;13.13;94.89
10060;BME280;5069;49.306;8.636;2022-09-29T08:56:29;99116.22;;;13.09;94.28
10060;BME280;5069;49.306;8.636;2022-09-29T08:59:31;99113.41;;;12.98;95.63
10060;BME280;5069;49.306;8.636;2022-09-29T09:09:32;99112.66;;;12.81;95.02
10060;BME280;5069;49.306;8.636;2022-09-29T09:19:35;99123.03;;;13.13;95.89
10060;BME280;5069;49.306;8.636;2022-09-29T09:22:59;99123.69;;;13.16;94.75
10060;BME280;5069;49.306;8.636;2022-09-29T09:26:03;99122.03;;;13.28;93.70
10060;BME280;5069;49.306;8.636;2022-09-29T09:29:21;99121.06;;;13.43;93.85
10060;BME280;5069;49.306;8.636;2022-09-29T09:32:29;99120.44;;;13.52;92.47
10060;BME280;5069;49.306;8.636;2022-09-29T09:35:47;99120.41;;;13.67;92.92
10060;BME280;5069;49.306;8.636;2022-09-29T09:42:12;99123.75;;;14.08;87.53
10060;BME280;5069;49.306;8.636;2022-09-29T09:45:33;99130.72;;;13.84;85.75
10060;BME280;5069;49.306;8.636;2022-09-29T09:48:41;99128.75;;;13.73;88.70
10060;BME280;5069;49.306;8.636;2022-09-29T09:51:49;99129.03;;;13.95;89.33
10060;BME280;5069;49.306;8.636;2022-09-29T09:54:58;99136.22;;;13.81;87.89
10060;BME280;5069;49.306;8.636;2022-09-29T09:58:32;99138.72;;;13.70;88.43
10060;BME280;5069;49.306;8.636;2022-09-29T10:01:39;99131.84;;;13.80;90.90
10060;BME280;5069;49.306;8.636;2022-09-29T10:04:40;99130.56;;;13.73;90.72
10060;BME280;5069;49.306;8.636;2022-09-29T10:07:43;99140.13;;;13.75;92.36
10060;BME280;5069;49.306;8.636;2022-09-29T10:10:45;99138.53;;;13.85;90.19
10060;BME280;5069;49.306;8.636;2022-09-29T10:17:16;99134.06;;;13.73;88.50
10060;BME280;5069;49.306;8.636;2022-09-29T10:20:35;99145.31;;;13.77;89.52
10060;BME280;5069;49.306;8.636;2022-09-29T10:23:37;99139.88;;;14.05;89.54
10060;BME280;5069;49.306;8.636;2022-09-29T10:26:42;99140.69;;;13.93;87.81
10060;BME280;5069;49.306;8.636;2022-09-29T10:29:46;99150.66;;;13.89;88.31
10060;BME280;5069;49.306;8.636;2022-09-29T10:32:57;99144.91;;;13.95;89.10
10060;BME280;5069;49.306;8.636;2022-09-29T10:36:06;99144.94;;;14.08;87.25
10060;BME280;5069;49.306;8.636;2022-09-29T10:39:29;99148.75;;;14.04;87.58
10060;BME280;5069;49.306;8.636;2022-09-29T10:42:34;99141.47;;;14.33;85.94
10060;BME280;5069;49.306;8.636;2022-09-29T10:45:47;99146.97;;;14.30;83.39
10060;BME280;5069;49.306;8.636;2022-09-29T10:49:07;99142.25;;;14.35;84.60
10060;BME280;5069;49.306;8.636;2022-09-29T10:52:23;99141.63;;;14.44;86.46
10060;BME280;5069;49.306;8.636;2022-09-29T10:55:46;99142.84;;;14.26;85.79
10060;BME280;5069;49.306;8.636;2022-09-29T10:58:53;99136.09;;;14.34;86.21
10060;BME280;5069;49.306;8.636;2022-09-29T11:02:03;99133.25;;;14.50;86.15
10060;BME280;5069;49.306;8.636;2022-09-29T11:05:15;99137.38;;;14.67;81.71
10060;BME280;5069;49.306;8.636;2022-09-29T11:08:17;99130.34;;;14.78;81.46
10060;BME280;5069;49.306;8.636;2022-09-29T11:11:35;99136.94;;;14.73;79.79
10060;BME280;5069;49.306;8.636;2022-09-29T11:17:39;99137.19;;;14.57;79.99
10060;BME280;5069;49.306;8.636;2022-09-29T11:20:55;99139.38;;;14.76;80.50
10060;BME280;5069;49.306;8.636;2022-09-29T11:30:34;99142.09;;;14.87;80.87
10060;BME280;5069;49.306;8.636;2022-09-29T11:33:56;99133.59;;;14.95;79.12
10060;BME280;5069;49.306;8.636;2022-09-29T11:37:22;99140.94;;;14.91;79.19
10060;BME280;5069;49.306;8.636;2022-09-29T11:44:00;99149.94;;;15.01;78.71
10060;BME280;5069;49.306;8.636;2022-09-29T11:53:49;99144.22;;;14.95;77.25
10060;BME280;5069;49.306;8.636;2022-09-29T11:57:03;99155.19;;;14.77;76.85
10060;BME280;5069;49.306;8.636;2022-09-29T12:00:20;99144.38;;;14.80;78.87
10060;BME280;5069;49.306;8.636;2022-09-29T12:03:37;99145.22;;;14.56;76.91
10060;BME280;5069;49.306;8.636;2022-09-29T12:06:52;99137.56;;;14.64;78.40
10060;BME280;5069;49.306;8.636;2022-09-29T12:10:13;99135.16;;;14.61;80.01
10060;BME280;5069;49.306;8.636;2022-09-29T12:16:37;99137.75;;;14.35;81.99
10060;BME280;5069;49.306;8.636;2022-09-29T12:19:41;99137.13;;;14.32;80.76
10060;BME280;5069;49.306;8.636;2022-09-29T12:22:44;99132.06;;;14.41;80.73
10060;BME280;5069;49.306;8.636;2022-09-29T12:25:53;99128.97;;;14.35;80.58
10060;BME280;5069;49.306;8.636;2022-09-29T12:29:04;99135.91;;;14.50;81.22
10060;BME280;5069;49.306;8.636;2022-09-29T12:32:26;99130.59;;;14.63;77.83
10060;BME280;5069;49.306;8.636;2022-09-29T12:35:36;99132.25;;;14.76;77.12
10060;BME280;5069;49.306;8.636;2022-09-29T12:38:42;99128.19;;;14.96;77.06
10060;BME280;5069;49.306;8.636;2022-09-29T12:41:51;99122.00;;;15.08;75.59
10060;BME280;5069;49.306;8.636;2022-09-29T12:51:56;99121.63;;;14.89;71.85
10060;BME280;5069;49.306;8.636;2022-09-29T12:55:00;99118.88;;;14.78;71.42
10060;BME280;5069;49.306;8.636;2022-09-29T12:58:10;99124.72;;;14.83;71.95
10060;BME280;5069;49.306;8.636;2022-09-29T13:01:34;99129.16;;;14.95;71.45
10060;BME280;5069;49.306;8.636;2022-09-29T13:04:57;99132.41;;;15.11;71.08
10060;BME280;5069;49.306;8.636;2022-09-29T13:12:12;99141.13;;;15.01;67.60
10060;BME280;5069;49.306;8.636;2022-09-29T13:25:24;99143.16;;;14.97;67.82
10060;BME280;5069;49.306;8.636;2022-09-29T13:28:38;99151.13;;;14.97;69.22
10060;BME280;5069;49.306;8.636;2022-09-29T13:31:43;99145.16;;;14.94;69.08
10060;BME280;5069;49.306;8.636;2022-09-29T13:34:52;99151.34;;;14.94;70.77
10060;BME280;5069;49.306;8.636;2022-09-29T13:38:03;99151.13;;;14.97;70.02
10060;BME280;5069;49.306;8.636;2022-09-29T13:41:36;99155.59;;;14.97;68.87
10060;BME280;5069;49.306;8.636;2022-09-29T13:44:39;99164.50;;;14.96;70.02
10060;BME280;5069;49.306;8.636;2022-09-29T13:47:51;99159.81;;;14.86;69.01
10060;BME280;5069;49.306;8.636;2022-09-29T13:50:53;99154.94;;;14.93;70.28
10060;BME280;5069;49.306;8.636;2022-09-29T13:54:19;99157.16;;;14.99;70.22
10060;BME280;5069;49.306;8.636;2022-09-29T13:57:21;99162.03;;;15.05;69.59
10060;BME280;5069;49.306;8.636;2022-09-29T14:00:30;99161.31;;;15.03;69.79
10060;BME280;5069;49.306;8.636;2022-09-29T14:03:40;99159.38;;;15.05;69.59
10060;BME280;5069;49.306;8.636;2022-09-29T14:06:46;99161.50;;;15.13;69.29
10060;BME280;5069;49.306;8.636;2022-09-29T14:09:48;99163.69;;;15.32;71.60
10060;BME280;5069;49.306;8.636;2022-09-29T14:12:56;99160.38;;;15.28;69.87
10060;BME280;5069;49.306;8.636;2022-09-29T14:16:38;99163.34;;;15.36;69.13
10060;BME280;5069;49.306;8.636;2022-09-29T14:19:53;99157.56;;;15.55;70.10
10060;BME280;5069;49.306;8.636;2022-09-29T14:26:02;99154.16;;;15.53;68.35
10060;BME280;5069;49.306;8.636;2022-09-29T14:29:04;99166.66;;;15.51;68.79
10060;BME280;5069;49.306;8.636;2022-09-29T14:32:17;99166.50;;;15.54;69.30
10060;BME280;5069;49.306;8.636;2022-09-29T14:35:34;99168.53;;;15.74;66.92
10060;BME280;5069;49.306;8.636;2022-09-29T14:38:43;99169.88;;;15.56;64.80
10060;BME280;5069;49.306;8.636;2022-09-29T14:41:58;99182.44;;;15.54;64.87
10060;BME280;5069;49.306;8.636;2022-09-29T14:45:02;99186.38;;;15.72;63.06
10060;BME280;5069;49.306;8.636;2022-09-29T14:48:33;99183.09;;;15.92;63.65
10060;BME280;5069;49.306;8.636;2022-09-29T15:02:43;99182.31;;;15.79;63.61
10060;BME280;5069;49.306;8.636;2022-09-29T15:05:46;99192.38;;;15.63;63.41
10060;BME280;5069;49.306;8.636;2022-09-29T15:12:01;99196.94;;;15.61;64.69
10060;BME280;5069;49.306;8.636;2022-09-29T15:15:04;99199.31;;;15.53;63.68
10060;BME280;5069;49.306;8.636;2022-09-29T15:18:16;99200.28;;;15.52;64.86
10060;BME280;5069;49.306;8.636;2022-09-29T15:21:44;99205.38;;;15.55;65.05
10060;BME280;5069;49.306;8.636;2022-09-29T15:31:30;99200.50;;;15.36;65.22
10060;BME280;5069;49.306;8.636;2022-09-29T15:34:37;99201.97;;;15.40;66.07
10060;BME280;5069;49.306;8.636;2022-09-29T15:37:57;99196.50;;;15.30;64.89
10060;BME280;5069;49.306;8.636;2022-09-29T15:41:03;99204.22;;;15.34;65.31
10060;BME280;5069;49.306;8.636;2022-09-29T15:44:16;99213.47;;;15.28;63.52
10060;BME280;5069;49.306;8.636;2022-09-29T15:47:25;99212.09;;;15.22;63.41
10060;BME280;5069;49.306;8.636;2022-09-29T15:50:28;99214.56;;;15.25;65.94
10060;BME280;5069;49.306;8.636;2022-09-29T15:53:32;99217.22;;;15.13;61.60
10060;BME280;5069;49.306;8.636;2022-09-29T15:56:33;99221.78;;;15.11;62.20
10060;BME280;5069;49.306;8.636;2022-09-29T15:59:55;99227.94;;;15.11;63.32
10060;BME280;5069;49.306;8.636;2022-09-29T16:03:20;99232.91;;;15.16;63.15
10060;BME280;5069;49.306;8.636;2022-09-29T16:06:34;99236.66;;;15.13;63.52
10060;BME280;5069;49.306;8.636;2022-09-29T16:09:38;99238.78;;;15.08;64.06
10060;BME280;5069;49.306;8.636;2022-09-29T16:12:47;99240.25;;;15.12;65.82
10060;BME280;5069;49.306;8.636;2022-09-29T16:15:49;99253.44;;;15.01;64.87
10060;BME280;5069;49.306;8.636;2022-09-29T16:18:52;99256.00;;;15.03;66.16
10060;BME280;5069;49.306;8.636;2022-09-29T16:22:01;99257.28;;;14.97;64.30
10060;BME280;5069;49.306;8.636;2022-09-29T16:25:18;99259.41;;;14.92;66.25
10060;BME280;5069;49.306;8.636;2022-09-29T16:28:25;99270.44;;;14.86;67.60
10060;BME280;5069;49.306;8.636;2022-09-29T16:31:28;99276.25;;;14.78;68.62
10060;BME280;5069;49.306;8.636;2022-09-29T16:34:31;99279.22;;;14.74;70.59
10060;BME280;5069;49.306;8.636;2022-09-29T16:37:33;99274.34;;;14.68;72.35
10060;BME280;5069;49.306;8.636;2022-09-29T16:40:37;99284.19;;;14.66;73.59
10060;BME280;5069;49.306;8.636;2022-09-29T16:43:40;99284.41;;;14.63;75.08
10060;BME280;5069;49.306;8.636;2022-09-29T16:46:54;99290.97;;;14.57;76.44
10060;BME280;5069;49.306;8.636;2022-09-29T16:50:01;99290.53;;;14.51;75.93
10060;BME280;5069;49.306;8.636;2022-09-29T16:53:03;99296.34;;;14.43;76.39
10060;BME280;5069;49.306;8.636;2022-09-29T16:56:09;99296.66;;;14.38;77.34
10060;BME280;5069;49.306;8.636;2022-09-29T16:59:20;99305.28;;;14.28;78.47
10060;BME280;5069;49.306;8.636;2022-09-29T17:02:23;99309.75;;;14.27;79.58
10060;BME280;5069;49.306;8.636;2022-09-29T17:05:26;99316.94;;;14.25;81.21
10060;BME280;5069;49.306;8.636;2022-09-29T17:08:28;99324.78;;;14.27;81.51
10060;BME280;5069;49.306;8.636;2022-09-29T17:11:31;99322.50;;;14.35;80.24
10060;BME280;5069;49.306;8.636;2022-09-29T17:14:32;99325.25;;;14.33;79.90
10060;BME280;5069;49.306;8.636;2022-09-29T17:17:34;99328.31;;;14.13;81.52
10060;BME280;5069;49.306;8.636;2022-09-29T17:20:35;99330.63;;;14.05;83.14
10060;BME280;5069;49.306;8.636;2022-09-29T17:23:37;99329.16;;;14.01;84.54
10060;BME280;5069;49.306;8.636;2022-09-29T17:26:41;99334.44;;;14.01;85.60
10060;BME280;5069;49.306;8.636;2022-09-29T17:30:03;99335.09;;;14.04;85.61
10060;BME280;5069;49.306;8.636;2022-09-29T17:33:05;99341.25;;;14.05;86.45
10060;BME280;5069;49.306;8.636;2022-09-29T17:36:10;99348.03;;;14.09;85.19
10060;BME280;5069;49.306;8.636;2022-09-29T17:39:13;99357.88;;;14.07;85.22
10060;BME280;5069;49.306;8.636;2022-09-29T17:42:16;99368.34;;;13.82;86.85
10060;BME280;5069;49.306;8.636;2022-09-29T17:45:19;99369.09;;;13.84;87.69
10060;BME280;5069;49.306;8.636;2022-09-29T17:48:20;99370.81;;;13.56;91.28
10060;BME280;5069;49.306;8.636;2022-09-29T17:51:22;99371.47;;;13.46;93.45
10060;BME280;5069;49.306;8.636;2022-09-29T17:54:23;99379.13;;;13.22;96.29
10060;BME280;5069;49.306;8.636;2022-09-29T17:57:27;99385.38;;;13.05;98.92
10060;BME280;5069;49.306;8.636;2022-09-29T18:00:33;99379.06;;;13.08;99.75
10060;BME280;5069;49.306;8.636;2022-09-29T18:03:37;99383.38;;;12.95;100.00
10060;BME280;5069;49.306;8.636;2022-09-29T18:06:40;99390.06;;;12.86;100.00
10060;BME280;5069;49.306;8.636;2022-09-29T18:09:42;99388.88;;;12.92;100.00
10060;BME280;5069;49.306;8.636;2022-09-29T18:12:44;99389.16;;;13.01;98.92
10060;BME280;5069;49.306;8.636;2022-09-29T18:15:46;99398.09;;;12.84;100.00
10060;BME280;5069;49.306;8.636;2022-09-29T18:18:48;99387.50;;;12.84;100.00
10060;BME280;5069;49.306;8.636;2022-09-29T18:21:58;99395.38;;;12.70;100.00
10060;BME280;5069;49.306;8.636;2022-09-29T18:25:00;99397.56;;;12.48;100.00
10060;BME280;5069;49.306;8.636;2022-09-29T18:28:01;99395.47;;;12.39;100.00
10060;BME280;5069;49.306;8.636;2022-09-29T18:31:36;99394.63;;;12.23;100.00
10060;BME280;5069;49.306;8.636;2022-09-29T18:34:37;99409.28;;;12.13;100.00
10060;BME280;5069;49.306;8.636;2022-09-29T18:37:39;99406.22;;;12.05;100.00